Time;durP1;ratioP1;P1;durP2;ratioP2;P2;SDS_P1;SDS_P2;PMS_P1;PMS_P2;Temp;Humidity;BMP_temperature;BMP_pressure;BME280_temperature;BME280_humidity;BME280_pressure;Samples;Min_cycle;Max_cycle;Signal;HPM_P1;HPM_P2
2022/11/29 00:03:06;;;;;;;53.80;27.55;;;;;;;5.47;88.57;100251.75;10379076;28;20056;-79
2022/11/29 00:08:09;;;;;;;53.00;27.52;;;;;;;5.48;88.63;100250.78;10409674;28;20192;-79
2022/11/29 00:13:12;;;;;;;52.45;26.50;;;;;;;5.53;88.48;100255.84;10402179;28;20056;-79
2022/11/29 00:18:16;;;;;;;53.63;27.55;;;;;;;5.54;88.56;100245.09;10409652;28;20045;-78
2022/11/29 00:23:19;;;;;;;51.63;27.10;;;;;;;5.53;88.50;100253.16;10412303;28;20076;-80
2022/11/29 00:28:22;;;;;;;53.10;26.55;;;;;;;5.53;88.73;100250.50;10418888;28;20290;-79
2022/11/29 00:33:26;;;;;;;54.03;28.00;;;;;;;5.54;88.47;100260.19;10411195;28;20705;-78
2022/11/29 00:38:29;;;;;;;58.60;27.23;;;;;;;5.55;88.68;100262.78;10371247;28;20188;-80
2022/11/29 00:43:32;;;;;;;55.65;28.52;;;;;;;5.57;88.64;100249.34;10372254;28;20050;-80
2022/11/29 00:48:36;;;;;;;56.25;28.48;;;;;;;5.54;88.44;100247.75;10380086;28;20101;-78
2022/11/29 00:53:40;;;;;;;55.53;29.05;;;;;;;5.53;88.34;100248.69;10380115;28;20164;-80
2022/11/29 00:58:43;;;;;;;57.33;27.75;;;;;;;5.57;88.49;100252.00;10369967;28;20060;-80
2022/11/29 01:03:47;;;;;;;52.35;28.20;;;;;;;5.62;88.75;100257.91;10369521;28;20117;-79
2022/11/29 01:08:50;;;;;;;53.72;27.17;;;;;;;5.60;88.48;100259.84;10389013;28;20143;-79
2022/11/29 01:13:56;;;;;;;58.92;28.30;;;;;;;5.58;88.34;100257.25;10448724;28;20079;-80
2022/11/29 01:19:00;;;;;;;46.05;25.48;;;;;;;5.61;88.85;100254.41;10450551;28;20063;-79
2022/11/29 01:24:03;;;;;;;55.25;26.88;;;;;;;5.61;88.51;100253.56;10458703;28;21114;-80
2022/11/29 01:29:06;;;;;;;49.58;26.00;;;;;;;5.61;88.73;100257.06;10458864;28;20036;-79
2022/11/29 01:34:11;;;;;;;52.53;26.88;;;;;;;5.58;88.49;100256.41;10443604;28;20433;-79
2022/11/29 01:39:14;;;;;;;52.08;27.92;;;;;;;5.59;88.78;100258.97;10462801;28;20063;-77
2022/11/29 01:44:54;;;;;;;52.97;26.85;;;;;;;5.60;88.63;100258.03;10419628;28;20080;-79
2022/11/29 01:49:59;;;;;;;54.60;28.00;;;;;;;5.60;88.91;100268.69;10446807;28;20391;-79
2022/11/29 01:55:05;;;;;;;47.08;25.45;;;;;;;5.61;88.05;100277.53;10454908;28;20044;-80
2022/11/29 02:00:12;;;;;;;43.53;22.48;;;;;;;5.48;88.01;100286.25;10449020;28;20044;-79
2022/11/29 02:05:18;;;;;;;44.85;23.67;;;;;;;5.49;88.73;100288.00;10442858;28;20041;-79
2022/11/29 02:10:29;;;;;;;51.33;25.95;;;;;;;5.58;88.91;100283.06;10454484;28;20079;-79
2022/11/29 02:15:41;;;;;;;47.75;26.63;;;;;;;5.63;88.86;100278.31;10448946;28;20052;-79
2022/11/29 02:21:03;;;;;;;52.97;26.87;;;;;;;5.65;88.83;100285.25;10439823;28;20134;-80
2022/11/29 02:26:25;;;;;;;40.00;20.10;;;;;;;5.71;89.02;100284.88;10435126;28;20067;-78
2022/11/29 02:31:49;;;;;;;55.72;26.92;;;;;;;5.73;88.92;100292.75;10439118;28;20459;-80
2022/11/29 02:37:08;;;;;;;50.80;27.25;;;;;;;5.73;88.91;100296.28;10440479;28;21195;-79
2022/11/29 02:42:48;;;;;;;49.00;26.42;;;;;;;5.79;89.08;100297.72;10450206;28;20071;-80
2022/11/29 02:48:14;;;;;;;48.70;25.75;;;;;;;5.82;89.11;100300.19;10444530;28;20053;-80
2022/11/29 02:53:26;;;;;;;45.42;25.27;;;;;;;5.83;89.14;100303.72;10443457;28;20040;-80
2022/11/29 02:58:36;;;;;;;52.92;26.23;;;;;;;5.83;88.96;100309.03;10443613;28;20045;-80
2022/11/29 03:03:46;;;;;;;46.22;24.98;;;;;;;5.82;89.07;100316.19;10439067;28;20057;-81
2022/11/29 03:08:59;;;;;;;50.55;25.15;;;;;;;5.83;89.20;100322.38;10437291;28;20088;-80
2022/11/29 03:14:14;;;;;;;47.55;25.40;;;;;;;5.80;88.84;100319.91;10446513;28;20053;-79
2022/11/29 03:19:34;;;;;;;58.85;26.65;;;;;;;5.75;88.90;100333.50;10442546;28;20047;-78
2022/11/29 03:24:44;;;;;;;58.20;27.98;;;;;;;5.78;89.08;100337.78;10437948;28;20387;-80
2022/11/29 03:29:54;;;;;;;62.67;30.35;;;;;;;5.73;88.74;100333.63;10439878;28;20134;-80
2022/11/29 03:35:06;;;;;;;62.28;28.73;;;;;;;5.73;88.99;100335.41;10441591;28;20052;-80
2022/11/29 03:40:12;;;;;;;;;;;;;;;5.77;89.16;100342.25;10446792;28;20051;-79
2022/11/29 03:45:23;;;;;;;84.97;29.75;;;;;;;5.78;89.00;100351.13;10451974;28;20340;-79
2022/11/29 03:50:33;;;;;;;87.88;30.40;;;;;;;5.79;88.96;100348.38;10448424;28;20040;-78
2022/11/29 03:55:52;;;;;;;73.13;28.17;;;;;;;5.80;88.84;100352.72;10467087;28;20050;-80
2022/11/29 04:01:30;;;;;;;78.43;29.73;;;;;;;5.77;88.94;100355.59;10421784;28;20037;-81
2022/11/29 04:06:47;;;;;;;79.03;32.05;;;;;;;5.77;88.84;100355.59;10448788;28;20049;-80
2022/11/29 04:12:20;;;;;;;93.97;30.80;;;;;;;5.71;88.69;100353.31;10431462;28;20080;-79
2022/11/29 04:17:42;;;;;;;87.18;31.58;;;;;;;5.69;88.70;100355.19;10448549;28;20052;-80
2022/11/29 04:23:24;;;;;;;96.43;33.90;;;;;;;5.72;89.01;100357.69;10460423;28;20080;-80
2022/11/29 04:29:08;;;;;;;89.05;32.38;;;;;;;5.71;89.15;100353.31;10446943;28;20422;-79
2022/11/29 04:34:46;;;;;;;114.22;36.42;;;;;;;5.69;88.82;100360.53;10454721;28;20067;-80
2022/11/29 04:40:01;;;;;;;106.93;35.17;;;;;;;5.70;89.13;100376.44;10454337;28;20060;-80
2022/11/29 04:45:53;;;;;;;105.18;34.25;;;;;;;5.75;89.02;100378.81;10412495;28;20158;-79
2022/11/29 04:51:08;;;;;;;108.40;33.65;;;;;;;5.78;89.02;100381.28;10247078;28;20112;-80
2022/11/29 04:56:20;;;;;;;116.22;33.42;;;;;;;5.78;89.03;100383.09;10424789;28;20098;-78
2022/11/29 05:01:32;;;;;;;103.85;32.60;;;;;;;5.76;89.02;100393.00;10435314;28;20498;-78
2022/11/29 05:06:44;;;;;;;115.85;32.85;;;;;;;5.76;88.92;100398.31;10465864;28;20056;-79
2022/11/29 05:11:57;;;;;;;137.10;34.20;;;;;;;5.76;88.67;100396.53;10424543;28;20053;-78
2022/11/29 05:17:21;;;;;;;99.20;31.95;;;;;;;5.65;88.94;100398.97;10441037;28;20275;-80
2022/11/29 05:22:31;;;;;;;125.93;33.33;;;;;;;5.57;89.17;100410.13;10447807;28;20500;-78
2022/11/29 05:27:45;;;;;;;214.68;37.08;;;;;;;5.63;88.94;100409.75;10440893;28;20124;-78
2022/11/29 05:32:57;;;;;;;157.27;36.10;;;;;;;5.58;89.20;100406.50;10432174;28;20059;-78
2022/11/29 05:38:08;;;;;;;130.80;35.20;;;;;;;5.60;88.97;100409.06;10450522;28;21166;-79
2022/11/29 05:43:25;;;;;;;299.35;38.25;;;;;;;5.52;89.01;100419.34;10451328;28;20049;-79
2022/11/29 05:48:43;;;;;;;138.80;34.97;;;;;;;5.57;89.35;100420.78;10451597;28;20037;-79
2022/11/29 05:53:57;;;;;;;141.00;33.38;;;;;;;5.55;88.91;100428.00;10434453;28;20136;-79
2022/11/29 05:59:04;;;;;;;156.50;34.30;;;;;;;5.58;89.24;100434.94;10443798;28;20061;-80
2022/11/29 06:04:16;;;;;;;166.27;37.55;;;;;;;5.58;89.03;100438.47;10448745;28;20424;-78
2022/11/29 06:09:26;;;;;;;111.07;33.77;;;;;;;5.57;89.27;100446.53;10476524;28;20066;-78
2022/11/29 06:14:57;;;;;;;113.93;32.72;;;;;;;5.53;89.34;100447.69;10453111;28;20750;-78
2022/11/29 06:20:25;;;;;;;134.25;31.65;;;;;;;5.61;89.58;100458.75;10470484;28;20441;-80
2022/11/29 06:25:45;;;;;;;84.72;30.13;;;;;;;5.57;89.34;100465.19;10456183;28;20144;-80
2022/11/29 06:30:59;;;;;;;80.18;30.05;;;;;;;5.56;89.26;100468.81;10442747;28;20055;-80
2022/11/29 06:36:15;;;;;;;135.65;30.08;;;;;;;5.57;89.53;100465.19;10471565;28;20053;-79
2022/11/29 06:41:20;;;;;;;84.95;27.52;;;;;;;5.63;89.41;100483.50;10457072;28;20116;-78
2022/11/29 06:46:34;;;;;;;92.40;29.67;;;;;;;5.67;89.69;100482.38;10454908;28;20045;-80
2022/11/29 06:51:48;;;;;;;85.60;30.63;;;;;;;5.70;89.54;100484.84;10405732;28;20049;-80
2022/11/29 06:57:00;;;;;;;90.80;30.38;;;;;;;5.67;89.34;100493.88;10460632;28;20556;-79
2022/11/29 07:02:21;;;;;;;82.30;29.57;;;;;;;5.66;89.44;100497.50;10456990;28;20052;-79
2022/11/29 07:07:26;;;;;;;87.00;25.35;;;;;;;5.69;89.27;100496.47;10452381;28;20107;-80
2022/11/29 07:12:29;;;;;;;64.13;24.50;;;;;;;5.72;89.50;100506.94;10443206;28;20048;-78
2022/11/29 07:17:43;;;;;;;65.35;26.63;;;;;;;5.79;89.75;100507.41;10468539;28;20135;-78
2022/11/29 07:22:58;;;;;;;64.22;25.65;;;;;;;5.82;89.40;100517.94;10463083;28;20136;-79
2022/11/29 07:28:11;;;;;;;67.63;25.42;;;;;;;5.84;89.76;100516.00;10465641;28;20135;-79
2022/11/29 07:33:18;;;;;;;;;;;;;;;5.93;89.86;100510.16;10472469;28;20132;-79
2022/11/29 07:38:30;;;;;;;54.05;21.40;;;;;;;6.08;89.69;100511.03;10461196;28;19928;-80
2022/11/29 07:43:45;;;;;;;38.65;18.77;;;;;;;6.20;89.80;100517.44;10449026;28;20112;-78
2022/11/29 07:48:48;;;;;;;31.10;16.95;;;;;;;6.31;89.29;100523.84;10452717;28;20102;-80
2022/11/29 07:53:52;;;;;;;33.88;17.27;;;;;;;6.37;89.67;100530.63;10457130;28;20599;-79
2022/11/29 07:58:55;;;;;;;38.50;19.35;;;;;;;6.54;89.66;100541.09;10465057;28;21271;-78
2022/11/29 08:03:58;;;;;;;44.72;19.88;;;;;;;6.51;89.01;100543.97;10438882;28;20052;-79
2022/11/29 08:09:04;;;;;;;38.78;19.63;;;;;;;6.48;89.55;100545.97;10413215;28;20112;-78
2022/11/29 08:14:07;;;;;;;41.50;20.85;;;;;;;6.47;89.88;100545.09;10457896;28;20045;-78
2022/11/29 08:19:09;;;;;;;50.45;23.58;;;;;;;6.49;89.88;100545.00;10468416;28;20041;-77
2022/11/29 08:24:13;;;;;;;57.05;24.90;;;;;;;6.45;89.38;100549.69;10439407;28;20057;-79
2022/11/29 08:29:17;;;;;;;60.28;25.98;;;;;;;6.37;89.59;100558.16;10421496;28;21236;-80
2022/11/29 08:34:20;;;;;;;72.32;28.75;;;;;;;6.37;89.68;100554.63;10425040;28;21234;-79
2022/11/29 08:39:24;;;;;;;72.38;28.30;;;;;;;6.35;89.37;100565.38;10431497;28;20042;-79
2022/11/29 08:44:27;;;;;;;62.85;25.45;;;;;;;6.31;89.27;100565.69;10433305;28;20045;-79
2022/11/29 08:49:30;;;;;;;68.72;29.67;;;;;;;6.40;89.80;100565.13;10410837;28;20051;-79
2022/11/29 08:54:34;;;;;;;69.00;29.25;;;;;;;6.47;89.97;100571.78;10426264;28;20055;-78
2022/11/29 08:59:37;;;;;;;69.00;30.15;;;;;;;6.53;89.74;100583.91;10456492;28;20056;-79
2022/11/29 09:04:40;;;;;;;70.22;30.92;;;;;;;6.56;89.81;100583.72;10448843;28;20490;-79
2022/11/29 09:09:44;;;;;;;64.50;28.80;;;;;;;6.57;89.99;100583.63;10456486;28;20064;-79
2022/11/29 09:14:47;;;;;;;63.20;27.75;;;;;;;6.57;89.98;100594.28;10455770;28;20052;-80
2022/11/29 09:19:49;;;;;;;74.22;30.20;;;;;;;6.60;89.95;100591.44;10458616;28;20119;-77
2022/11/29 09:24:53;;;;;;;83.13;30.58;;;;;;;6.72;90.64;100600.53;10436264;28;20104;-79
2022/11/29 09:29:56;;;;;;;74.15;29.42;;;;;;;6.81;90.35;100607.09;10442858;28;20041;-79
2022/11/29 09:34:59;;;;;;;83.45;30.98;;;;;;;6.86;90.30;100615.69;10452231;28;20615;-79
2022/11/29 09:40:04;;;;;;;84.53;31.05;;;;;;;6.90;90.05;100622.56;10432235;28;20059;-79
2022/11/29 09:45:10;;;;;;;87.63;31.85;;;;;;;6.92;90.21;100623.34;10449230;28;21251;-79
2022/11/29 09:50:24;;;;;;;86.07;32.15;;;;;;;7.00;90.12;100628.22;10450247;28;20190;-80
2022/11/29 09:55:47;;;;;;;77.60;28.58;;;;;;;6.98;90.05;100635.47;10431261;28;20053;-79
2022/11/29 10:00:51;;;;;;;;;;;;;;;7.00;90.36;100636.22;10441599;28;20053;-80
2022/11/29 10:05:58;;;;;;;77.50;29.85;;;;;;;7.01;90.16;100633.44;10459877;28;20282;-78
2022/11/29 10:11:13;;;;;;;72.72;27.73;;;;;;;6.92;89.72;100638.50;10446953;28;20044;-79
2022/11/29 10:16:24;;;;;;;88.55;28.08;;;;;;;6.80;90.23;100632.06;10473971;28;20108;-79
2022/11/29 10:21:34;;;;;;;75.72;27.73;;;;;;;7.09;90.21;100629.44;10413767;28;20045;-78
2022/11/29 10:26:38;;;;;;;74.95;28.23;;;;;;;7.19;89.74;100633.28;10394721;28;20171;-77
2022/11/29 10:31:48;;;;;;;69.95;27.77;;;;;;;7.18;89.78;100631.53;10421792;28;20053;-79
2022/11/29 10:36:53;;;;;;;74.82;29.58;;;;;;;7.33;90.35;100629.72;10439422;28;20055;-80
2022/11/29 10:42:02;;;;;;;73.45;28.48;;;;;;;7.44;90.13;100633.41;10422701;28;20179;-79
2022/11/29 10:47:05;;;;;;;75.40;29.20;;;;;;;7.52;90.23;100632.94;10416901;28;20060;-80
2022/11/29 10:52:19;;;;;;;72.05;27.88;;;;;;;7.50;89.67;100635.69;10424553;28;20072;-80
2022/11/29 10:57:24;;;;;;;80.60;29.95;;;;;;;7.47;89.81;100643.91;10430199;28;20054;-79
2022/11/29 11:02:27;;;;;;;70.78;27.35;;;;;;;7.52;89.94;100643.63;10434139;28;20057;-81
2022/11/29 11:07:33;;;;;;;67.35;27.75;;;;;;;7.41;89.20;100633.63;10419440;28;20526;-79
2022/11/29 11:12:38;;;;;;;70.75;26.83;;;;;;;7.40;89.34;100639.06;10448830;28;20052;-79
2022/11/29 11:17:55;;;;;;;66.18;28.08;;;;;;;7.41;89.83;100635.44;10460382;28;20051;-80
2022/11/29 11:23:01;;;;;;;72.65;30.27;;;;;;;7.54;89.84;100632.81;10436574;28;20057;-80
2022/11/29 11:28:19;;;;;;;70.30;27.60;;;;;;;7.48;89.10;100642.09;10458291;28;20049;-81
2022/11/29 11:33:25;;;;;;;68.45;26.95;;;;;;;7.59;89.51;100633.38;10450352;28;20057;-81
2022/11/29 11:38:29;;;;;;;60.83;25.65;;;;;;;7.64;89.77;100634.81;10438469;28;20076;-80
2022/11/29 11:43:34;;;;;;;65.35;26.75;;;;;;;7.69;90.09;100638.03;10451850;28;20049;-80
2022/11/29 11:48:40;;;;;;;59.50;25.30;;;;;;;7.81;90.17;100643.53;10452172;28;20044;-79
2022/11/29 11:53:50;;;;;;;59.83;25.30;;;;;;;7.82;90.19;100645.28;10442116;28;20112;-78
2022/11/29 11:58:57;;;;;;;50.35;24.52;;;;;;;7.81;89.29;100644.41;10456476;28;20048;-80
2022/11/29 12:04:05;;;;;;;64.05;25.85;;;;;;;7.84;90.11;100657.56;10437237;28;20044;-79
2022/11/29 12:09:18;;;;;;;60.03;26.42;;;;;;;7.84;89.93;100654.88;10461665;28;20048;-80
2022/11/29 12:14:32;;;;;;;61.70;27.10;;;;;;;7.85;89.84;100658.44;10459693;28;20049;-80
2022/11/29 12:19:43;;;;;;;67.60;26.17;;;;;;;7.79;89.84;100656.16;10422416;28;20048;-79
2022/11/29 12:24:54;;;;;;;59.65;25.40;;;;;;;7.76;89.63;100665.22;10446119;28;20059;-80
2022/11/29 12:29:59;;;;;;;52.87;24.10;;;;;;;7.77;89.93;100664.28;10430758;28;20158;-80
2022/11/29 12:35:33;;;;;;;55.22;24.67;;;;;;;7.82;90.22;100674.69;10429894;28;20649;-80
2022/11/29 12:40:46;;;;;;;57.30;25.05;;;;;;;7.94;90.59;100679.22;10417101;28;21774;-79
2022/11/29 12:45:57;;;;;;;55.38;25.23;;;;;;;7.97;90.02;100676.34;10427922;28;20041;-77
2022/11/29 12:51:08;;;;;;;64.55;25.40;;;;;;;7.93;89.98;100682.88;10437083;28;20076;-79
2022/11/29 12:56:15;;;;;;;54.13;26.83;;;;;;;7.92;90.20;100691.84;10443471;28;20131;-78
2022/11/29 13:01:29;;;;;;;79.13;31.13;;;;;;;7.83;89.72;100685.28;10424266;28;20522;-80
2022/11/29 13:06:39;;;;;;;78.20;33.17;;;;;;;7.76;89.77;100696.47;10421194;28;20731;-79
2022/11/29 13:11:52;;;;;;;97.15;36.63;;;;;;;7.75;90.18;100695.63;10434196;28;20041;-79
2022/11/29 13:17:01;;;;;;;83.15;33.00;;;;;;;7.76;90.16;100700.00;10445086;28;20051;-77
2022/11/29 13:22:10;;;;;;;83.93;34.33;;;;;;;7.76;90.08;100701.81;10435048;28;20064;-79
2022/11/29 13:27:17;;;;;;;73.72;25.73;;;;;;;7.54;90.09;100705.84;10440971;28;20056;-79
2022/11/29 13:32:34;;;;;;;74.72;26.08;;;;;;;7.48;90.38;100707.09;10456021;28;20117;-80
2022/11/29 13:37:44;;;;;;;68.07;23.02;;;;;;;7.53;90.23;100706.81;10444686;28;20605;-80
2022/11/29 13:43:01;;;;;;;65.20;24.20;;;;;;;7.42;90.78;100711.97;10446679;28;20070;-79
2022/11/29 13:48:21;;;;;;;59.13;20.27;;;;;;;7.28;90.87;100704.84;10443860;28;20052;-80
2022/11/29 13:53:42;;;;;;;60.40;23.05;;;;;;;7.43;90.33;100711.91;10447411;28;20083;-79
2022/11/29 13:58:53;;;;;;;63.47;22.50;;;;;;;7.01;91.90;100710.91;10425478;28;20127;-79
2022/11/29 14:04:06;;;;;;;64.55;21.45;;;;;;;7.25;90.86;100721.06;10443746;28;20039;-79
2022/11/29 14:09:25;;;;;;;78.03;25.50;;;;;;;7.10;91.95;100719.31;10469405;28;20071;-79
2022/11/29 14:14:34;;;;;;;75.32;26.58;;;;;;;7.28;90.97;100720.88;10446825;28;20103;-79
2022/11/29 14:19:38;;;;;;;92.70;27.63;;;;;;;7.27;91.03;100728.03;10433883;28;20123;-79
2022/11/29 14:24:41;;;;;;;93.78;28.92;;;;;;;7.42;90.19;100725.34;10461105;28;20049;-80
2022/11/29 14:29:53;;;;;;;76.57;26.17;;;;;;;7.44;90.29;100726.97;10457807;28;20131;-79
2022/11/29 14:35:03;;;;;;;83.28;28.08;;;;;;;7.48;90.33;100727.63;10438072;28;20052;-80
2022/11/29 14:40:20;;;;;;;84.53;26.05;;;;;;;7.47;90.42;100731.28;10427118;28;20049;-80
2022/11/29 14:45:26;;;;;;;77.00;25.67;;;;;;;7.48;90.30;100727.63;10438322;28;20059;-79
2022/11/29 14:50:36;;;;;;;83.00;27.33;;;;;;;7.48;90.31;100728.47;10436126;28;20045;-79
2022/11/29 14:55:39;;;;;;;84.13;26.02;;;;;;;7.50;90.35;100734.59;10442933;28;20135;-79
2022/11/29 15:01:03;;;;;;;68.43;24.45;;;;;;;7.52;90.18;100741.69;10466439;28;20182;-80
2022/11/29 15:06:22;;;;;;;69.63;22.67;;;;;;;7.50;90.35;100739.94;10423087;28;20045;-80
2022/11/29 15:11:41;;;;;;;68.47;23.63;;;;;;;7.48;90.40;100743.66;10454834;28;20094;-80
2022/11/29 15:16:58;;;;;;;70.88;24.45;;;;;;;7.25;90.62;100745.97;10425227;28;20139;-79
2022/11/29 15:22:10;;;;;;;71.88;24.10;;;;;;;7.31;90.66;100747.41;10443282;28;20106;-79
2022/11/29 15:27:13;;;;;;;66.95;24.58;;;;;;;7.38;90.40;100743.41;10431560;28;21576;-79
2022/11/29 15:32:22;;;;;;;73.50;25.45;;;;;;;7.37;90.50;100744.34;10426757;28;21174;-78
2022/11/29 15:37:43;;;;;;;69.13;24.60;;;;;;;7.37;90.02;100746.16;10422728;28;20056;-79
2022/11/29 15:42:49;;;;;;;68.63;22.85;;;;;;;7.35;90.13;100748.94;10432332;28;20056;-78
2022/11/29 15:47:52;;;;;;;66.35;23.17;;;;;;;7.36;90.15;100747.13;10449435;28;20052;-79
2022/11/29 15:53:00;;;;;;;61.22;22.38;;;;;;;7.31;90.07;100749.22;10434738;28;20418;-77
2022/11/29 15:58:04;;;;;;;61.17;23.17;;;;;;;7.22;90.68;100751.50;10445756;28;20502;-78
2022/11/29 16:03:19;;;;;;;58.10;20.98;;;;;;;7.15;90.77;100755.47;10413141;28;20056;-79
2022/11/29 16:08:34;;;;;;;62.73;23.03;;;;;;;7.25;90.47;100758.47;10402613;28;20052;-80
2022/11/29 16:13:39;;;;;;;78.47;23.73;;;;;;;7.18;90.65;100763.31;10430298;28;20044;-79
2022/11/29 16:18:43;;;;;;;63.60;20.35;;;;;;;7.15;90.58;100776.84;10424155;28;20057;-78
2022/11/29 16:23:48;;;;;;;49.55;18.73;;;;;;;6.92;92.06;100769.38;10424092;28;20124;-77
2022/11/29 16:28:53;;;;;;;61.63;20.73;;;;;;;7.01;91.61;100783.03;10436848;28;20433;-79
2022/11/29 16:33:56;;;;;;;63.25;20.80;;;;;;;7.04;91.07;100780.16;10411272;28;20080;-77
2022/11/29 16:39:05;;;;;;;65.45;21.92;;;;;;;7.01;91.06;100784.84;10424076;28;20166;-79
2022/11/29 16:44:43;;;;;;;56.20;19.50;;;;;;;6.83;91.71;100790.31;10414545;28;20041;-77
2022/11/29 16:50:09;;;;;;;53.25;17.83;;;;;;;7.04;90.68;100792.69;10418679;28;20076;-79
2022/11/29 16:55:12;;;;;;;53.33;18.75;;;;;;;6.72;92.49;100792.75;10411519;28;21156;-79
2022/11/29 17:00:24;;;;;;;49.40;17.85;;;;;;;6.81;91.87;100789.53;10422491;28;20050;-78
2022/11/29 17:05:29;;;;;;;58.33;18.40;;;;;;;6.88;91.30;100794.53;10425475;28;20052;-79
2022/11/29 17:10:32;;;;;;;51.97;19.02;;;;;;;7.00;91.38;100796.50;10402593;28;20108;-78
2022/11/29 17:15:34;;;;;;;47.85;18.92;;;;;;;7.08;90.88;100798.72;10433686;28;20171;-78
2022/11/29 17:20:39;;;;;;;57.85;18.70;;;;;;;7.12;90.73;100809.09;10419300;28;20071;-79
2022/11/29 17:25:42;;;;;;;57.08;21.02;;;;;;;7.10;90.62;100812.81;10416056;28;20132;-79
2022/11/29 17:30:44;;;;;;;60.97;23.33;;;;;;;6.94;91.73;100815.53;10401537;28;20084;-79
2022/11/29 17:35:49;;;;;;;62.33;20.77;;;;;;;6.90;91.14;100820.19;10421490;28;20474;-77
2022/11/29 17:40:51;;;;;;;66.63;21.10;;;;;;;6.91;91.47;100819.28;10408318;28;20158;-77
2022/11/29 17:45:54;;;;;;;68.63;20.48;;;;;;;7.05;90.66;100813.97;10417297;28;20052;-78
2022/11/29 17:51:00;;;;;;;69.43;22.52;;;;;;;6.97;90.85;100823.38;10404727;28;20045;-79
2022/11/29 17:56:05;;;;;;;64.40;20.42;;;;;;;6.85;91.25;100825.78;10415562;28;20054;-80
2022/11/29 18:01:09;;;;;;;59.65;20.35;;;;;;;6.87;91.41;100827.50;10427658;28;20067;-80
2022/11/29 18:06:16;;;;;;;66.60;19.98;;;;;;;6.88;91.62;100829.25;10416224;28;20045;-78
2022/11/29 18:11:20;;;;;;;54.42;19.58;;;;;;;6.99;90.80;100829.47;10431646;28;20084;-79
2022/11/29 18:16:25;;;;;;;58.40;19.73;;;;;;;7.01;90.78;100828.44;10413681;28;20076;-79
2022/11/29 18:21:30;;;;;;;58.55;20.90;;;;;;;7.01;90.93;100838.28;10420905;28;20917;-80
2022/11/29 18:26:35;;;;;;;57.53;20.42;;;;;;;7.01;90.87;100835.59;10403397;28;20173;-78
2022/11/29 18:31:39;;;;;;;67.55;20.48;;;;;;;7.03;90.79;100844.38;10410011;28;20055;-80
2022/11/29 18:36:46;;;;;;;58.95;19.50;;;;;;;7.03;90.81;100847.06;10416737;28;20056;-80
2022/11/29 18:41:50;;;;;;;59.30;19.88;;;;;;;7.03;90.84;100849.72;10426897;28;20104;-80
2022/11/29 18:46:53;;;;;;;60.25;20.25;;;;;;;7.03;90.97;100841.72;10435561;28;20113;-79
2022/11/29 18:51:57;;;;;;;54.33;19.80;;;;;;;7.06;91.09;100846.88;10430095;28;20048;-80
2022/11/29 18:57:00;;;;;;;56.78;18.48;;;;;;;7.08;90.93;100860.16;10459706;28;21254;-80
2022/11/29 19:02:02;;;;;;;46.72;18.10;;;;;;;7.06;90.97;100854.88;10465024;28;20155;-81
2022/11/29 19:07:07;;;;;;;41.92;15.80;;;;;;;7.00;91.11;100857.94;10446847;28;20139;-81
2022/11/29 19:12:09;;;;;;;49.13;19.15;;;;;;;7.04;91.22;100849.63;10447868;28;20067;-80
2022/11/29 19:17:12;;;;;;;42.55;16.50;;;;;;;7.04;90.97;100852.28;10417853;28;20041;-83
2022/11/29 19:22:16;;;;;;;48.40;17.52;;;;;;;7.03;91.29;100861.28;10442461;28;20085;-80
2022/11/29 19:27:20;;;;;;;50.22;18.50;;;;;;;7.08;91.25;100858.34;10437650;28;20052;-81
2022/11/29 19:32:22;;;;;;;53.03;18.27;;;;;;;6.90;91.43;100867.41;10430118;28;20063;-81
2022/11/29 19:37:27;;;;;;;47.78;17.50;;;;;;;6.90;91.96;100867.41;10448040;28;20060;-81
2022/11/29 19:42:29;;;;;;;52.15;18.15;;;;;;;6.92;91.96;100860.19;10439688;28;20087;-81
2022/11/29 19:47:32;;;;;;;44.50;17.65;;;;;;;6.95;91.80;100863.53;10437203;28;20053;-80
2022/11/29 19:52:37;;;;;;;39.33;15.90;;;;;;;6.87;92.07;100865.78;10444109;28;20052;-81
2022/11/29 19:57:39;;;;;;;42.17;17.30;;;;;;;6.91;92.21;100866.47;10443060;28;20037;-80
2022/11/29 20:02:42;;;;;;;40.33;15.77;;;;;;;6.81;91.88;100872.31;10463798;28;20080;-81
2022/11/29 20:07:46;;;;;;;35.40;14.95;;;;;;;6.73;92.26;100874.56;10454439;28;20076;-81
2022/11/29 20:12:49;;;;;;;43.50;17.73;;;;;;;6.83;92.51;100873.09;10454364;28;20057;-80
2022/11/29 20:17:53;;;;;;;50.83;18.98;;;;;;;6.89;92.54;100879.06;10467977;28;20049;-80
2022/11/29 20:22:57;;;;;;;52.75;20.13;;;;;;;6.92;91.89;100881.56;10484891;28;20171;-80
2022/11/29 20:28:00;;;;;;;54.92;20.92;;;;;;;7.02;91.59;100877.38;10484353;28;20055;-82
2022/11/29 20:33:03;;;;;;;51.63;20.35;;;;;;;7.01;91.56;100884.53;10431956;28;20140;-82
2022/11/29 20:38:18;;;;;;;58.53;21.70;;;;;;;7.02;91.86;100890.72;10431864;28;20581;-82
2022/11/29 20:43:37;;;;;;;62.40;21.83;;;;;;;6.93;92.12;100889.47;10450417;28;20143;-81
2022/11/29 20:48:41;;;;;;;61.88;22.67;;;;;;;7.09;91.56;100888.59;10435210;28;20187;-80
2022/11/29 20:53:47;;;;;;;66.60;22.92;;;;;;;7.01;91.61;100889.03;10461862;28;20048;-81
2022/11/29 20:58:50;;;;;;;54.95;20.90;;;;;;;6.93;91.88;100893.94;10435614;28;20072;-81
2022/11/29 21:03:53;;;;;;;54.63;21.00;;;;;;;6.99;91.84;100897.16;10470354;28;20246;-81
2022/11/29 21:08:57;;;;;;;55.85;20.20;;;;;;;7.10;91.50;100904.50;10441275;28;20049;-81
2022/11/29 21:14:02;;;;;;;53.55;20.88;;;;;;;7.12;91.02;100897.28;10437449;28;20049;-82
2022/11/29 21:19:06;;;;;;;48.30;20.55;;;;;;;7.13;91.40;100896.34;10459281;28;20076;-81
2022/11/29 21:24:26;;;;;;;50.38;20.83;;;;;;;7.18;91.55;100891.56;10459941;28;20060;-81
2022/11/29 21:29:30;;;;;;;56.83;22.02;;;;;;;7.22;91.40;100890.44;10413403;28;20101;-80
2022/11/29 21:34:33;;;;;;;59.70;22.20;;;;;;;7.19;91.37;100890.63;10443177;28;20052;-81
2022/11/29 21:39:38;;;;;;;64.38;21.33;;;;;;;7.11;91.23;100903.56;10486559;28;20071;-81
2022/11/29 21:44:40;;;;;;;59.67;20.98;;;;;;;7.12;91.27;100899.94;10448760;28;20055;-81
2022/11/29 21:49:45;;;;;;;58.67;21.92;;;;;;;7.09;90.78;100907.28;10457241;28;20117;-81
2022/11/29 21:54:49;;;;;;;57.83;22.98;;;;;;;7.07;91.08;100902.00;10451224;28;20053;-81
2022/11/29 21:59:52;;;;;;;52.47;22.52;;;;;;;7.10;91.18;100907.19;10493979;28;20044;-81
2022/11/29 22:04:55;;;;;;;54.72;23.50;;;;;;;7.14;91.39;100910.56;10512396;28;20757;-80
2022/11/29 22:10:03;;;;;;;61.20;23.45;;;;;;;7.07;91.36;100915.38;10507988;28;20040;-81
2022/11/29 22:15:14;;;;;;;49.80;22.23;;;;;;;7.05;91.13;100923.50;10504690;28;20040;-80
2022/11/29 22:20:23;;;;;;;51.90;23.15;;;;;;;7.00;91.12;100922.91;10519473;28;20564;-80
2022/11/29 22:25:27;;;;;;;58.83;23.55;;;;;;;6.98;91.36;100927.47;10502829;28;20064;-80
2022/11/29 22:30:30;;;;;;;62.28;25.00;;;;;;;6.87;91.75;100923.66;10501929;28;20048;-80
2022/11/29 22:35:32;;;;;;;67.47;27.13;;;;;;;7.00;91.36;100928.25;10505879;28;20056;-81
2022/11/29 22:40:37;;;;;;;60.63;26.55;;;;;;;6.65;91.85;100937.34;10501501;28;20049;-80
2022/11/29 22:45:39;;;;;;;67.32;26.38;;;;;;;6.72;91.26;100936.03;10481879;28;20101;-80
2022/11/29 22:50:42;;;;;;;62.28;26.40;;;;;;;6.45;90.81;100935.78;10505177;28;20049;-80
2022/11/29 22:55:46;;;;;;;60.58;25.80;;;;;;;6.60;90.72;100941.13;10502201;28;20040;-80
2022/11/29 23:00:49;;;;;;;59.47;27.15;;;;;;;6.38;90.68;100946.78;10470092;28;20511;-79
2022/11/29 23:05:52;;;;;;;58.70;27.17;;;;;;;6.34;90.75;100952.41;10501147;28;20044;-80
2022/11/29 23:10:57;;;;;;;55.42;25.55;;;;;;;6.48;90.84;100944.50;10501271;28;20056;-80
2022/11/29 23:16:00;;;;;;;59.97;26.92;;;;;;;6.38;90.23;100949.44;10502928;28;20044;-80
2022/11/29 23:21:06;;;;;;;55.15;26.08;;;;;;;6.42;91.02;100951.94;10506632;28;20077;-80
2022/11/29 23:26:17;;;;;;;56.60;26.63;;;;;;;6.48;90.37;100955.16;10501204;28;20049;-80